Time;durP1;ratioP1;P1;durP2;ratioP2;P2;SDS_P1;SDS_P2;PMS_P1;PMS_P2;Temp;Humidity;BMP_temperature;BMP_pressure;BME280_temperature;BME280_humidity;BME280_pressure;Samples;Min_cycle;Max_cycle;Signal;HPM_P1;HPM_P2
2022/03/09 00:01:36;;;;;;;47.90;12.10;;;0.90;16.50;;;;;;5026423;28;20895;-59
2022/03/09 00:04:03;;;;;;;48.80;14.80;;;0.80;16.60;;;;;;5022372;28;20466;-58
2022/03/09 00:06:29;;;;;;;48.70;12.37;;;0.80;16.70;;;;;;5019845;28;20463;-58
2022/03/09 00:08:56;;;;;;;47.00;14.30;;;0.70;16.80;;;;;;5020152;28;20465;-59
2022/03/09 00:11:24;;;;;;;49.80;13.13;;;0.70;16.80;;;;;;5021531;28;20462;-59
2022/03/09 00:13:51;;;;;;;48.83;14.00;;;0.70;17.00;;;;;;5022678;28;20470;-60
2022/03/09 00:16:18;;;;;;;49.50;11.70;;;0.70;17.00;;;;;;5023242;28;20495;-59
2022/03/09 00:18:45;;;;;;;48.20;12.33;;;0.70;17.10;;;;;;5024026;28;20479;-59
2022/03/09 00:21:11;;;;;;;49.60;12.20;;;0.70;17.20;;;;;;5032329;28;20462;-59
2022/03/09 00:23:38;;;;;;;49.17;13.70;;;0.70;17.30;;;;;;5027328;28;20482;-59
2022/03/09 00:26:05;;;;;;;46.37;12.63;;;0.70;17.30;;;;;;5013476;28;21013;-60
2022/03/09 00:28:33;;;;;;;51.17;12.20;;;0.60;17.20;;;;;;5031505;28;20450;-58
2022/03/09 00:31:00;;;;;;;47.87;11.90;;;0.60;17.30;;;;;;5033657;28;20486;-60
2022/03/09 00:33:27;;;;;;;47.70;11.00;;;0.60;17.30;;;;;;5031327;28;20466;-60
2022/03/09 00:35:54;;;;;;;49.57;12.90;;;0.60;17.30;;;;;;5023363;28;20483;-60
2022/03/09 00:38:20;;;;;;;50.13;12.60;;;0.60;17.40;;;;;;5026884;28;20470;-60
2022/03/09 00:40:48;;;;;;;49.17;13.50;;;0.60;17.30;;;;;;5029504;28;20546;-59
2022/03/09 00:43:15;;;;;;;51.60;13.17;;;0.60;17.30;;;;;;5025837;28;20569;-60
2022/03/09 00:45:43;;;;;;;45.40;12.67;;;0.60;17.40;;;;;;5033935;28;20485;-59
2022/03/09 00:48:10;;;;;;;44.93;11.30;;;0.50;17.60;;;;;;5024517;28;20459;-60
2022/03/09 00:50:37;;;;;;;47.20;11.67;;;0.50;17.60;;;;;;5032761;28;20462;-58
2022/03/09 00:53:04;;;;;;;47.67;12.23;;;0.80;17.70;;;;;;5025160;28;20525;-59
2022/03/09 00:55:30;;;;;;;48.97;12.00;;;0.50;17.70;;;;;;5025058;28;21047;-59
2022/03/09 00:57:57;;;;;;;49.03;12.40;;;0.40;17.70;;;;;;5027640;28;20466;-60
2022/03/09 01:00:24;;;;;;;48.80;11.83;;;0.40;17.80;;;;;;5035463;28;20469;-59
2022/03/09 01:02:52;;;;;;;46.13;12.70;;;0.50;17.80;;;;;;5027001;28;20574;-59
2022/03/09 01:05:19;;;;;;;48.43;11.70;;;0.40;17.70;;;;;;5026497;28;20517;-59
2022/03/09 01:07:46;;;;;;;50.50;13.87;;;0.40;17.70;;;;;;5018966;28;20497;-60
2022/03/09 01:10:13;;;;;;;48.73;13.33;;;0.40;17.70;;;;;;5030805;28;20458;-59
2022/03/09 01:12:40;;;;;;;45.70;11.40;;;0.40;17.70;;;;;;5033446;28;20456;-60
2022/03/09 01:15:08;;;;;;;49.93;13.23;;;0.40;17.70;;;;;;5027624;28;20493;-59
2022/03/09 01:17:35;;;;;;;47.07;11.20;;;0.40;17.80;;;;;;5021707;28;20459;-59
2022/03/09 01:20:04;;;;;;;46.80;12.13;;;0.40;17.70;;;;;;5024722;28;20458;-60
2022/03/09 01:22:30;;;;;;;48.00;12.20;;;0.30;18.20;;;;;;5025212;28;20868;-60
2022/03/09 01:24:57;;;;;;;47.70;12.77;;;0.30;17.80;;;;;;5026051;28;20487;-59
2022/03/09 01:27:24;;;;;;;51.13;12.13;;;0.20;17.80;;;;;;5021510;28;20467;-59
2022/03/09 01:29:51;;;;;;;45.00;10.87;;;0.20;18.00;;;;;;5024696;28;20881;-60
2022/03/09 01:32:19;;;;;;;50.60;13.03;;;0.20;18.10;;;;;;5027520;28;20467;-60
2022/03/09 01:34:46;;;;;;;48.60;13.67;;;0.20;18.20;;;;;;5025172;28;20873;-60
2022/03/09 01:37:14;;;;;;;47.90;12.90;;;0.10;18.40;;;;;;5024508;28;20474;-59
2022/03/09 01:39:41;;;;;;;46.07;12.40;;;0.10;18.60;;;;;;5026508;28;20463;-60
2022/03/09 01:42:08;;;;;;;51.40;13.20;;;0.00;18.60;;;;;;5019583;28;20547;-59
2022/03/09 01:44:35;;;;;;;47.53;11.37;;;0.00;18.60;;;;;;5040112;28;20486;-59
2022/03/09 01:47:01;;;;;;;47.80;11.10;;;0.20;18.80;;;;;;5023371;28;20475;-60
2022/03/09 01:49:28;;;;;;;46.20;12.30;;;0.00;18.70;;;;;;5034011;28;20463;-60
2022/03/09 01:51:58;;;;;;;47.03;11.20;;;0.00;18.70;;;;;;5032657;28;20473;-59
2022/03/09 01:54:27;;;;;;;48.40;12.90;;;0.00;18.80;;;;;;5030949;28;20485;-59
2022/03/09 01:56:54;;;;;;;49.70;11.97;;;0.00;18.80;;;;;;5024868;28;20459;-59
2022/03/09 01:59:21;;;;;;;48.37;11.93;;;-0.10;18.70;;;;;;5026483;28;20976;-59
2022/03/09 02:01:48;;;;;;;47.97;11.47;;;-0.10;19.50;;;;;;5031130;28;20479;-59
2022/03/09 02:04:15;;;;;;;50.43;12.80;;;-0.10;19.00;;;;;;5026293;28;20491;-59
2022/03/09 02:06:43;;;;;;;47.87;11.20;;;-0.10;19.10;;;;;;5027149;28;20470;-59
2022/03/09 02:12:06;;;;;;;49.13;11.60;;;-0.20;19.20;;;;;;5000078;28;20481;-59
2022/03/09 02:14:36;;;;;;;51.53;12.20;;;0.20;19.30;;;;;;5023756;28;20487;-58
2022/03/09 02:17:04;;;;;;;48.60;11.87;;;-0.20;19.10;;;;;;5024739;28;20470;-59
2022/03/09 02:19:31;;;;;;;49.27;13.07;;;-0.20;19.10;;;;;;5026108;28;20471;-59
2022/03/09 02:22:05;;;;;;;48.27;12.10;;;-0.20;19.40;;;;;;5035080;28;20466;-59
2022/03/09 02:24:34;;;;;;;49.13;14.63;;;-0.20;19.40;;;;;;5022225;28;20483;-59
2022/03/09 02:27:01;;;;;;;46.20;11.23;;;-0.30;19.40;;;;;;5027579;28;20466;-59
2022/03/09 02:29:28;;;;;;;50.63;13.47;;;-0.30;19.40;;;;;;5031615;28;20463;-58
2022/03/09 02:31:55;;;;;;;48.50;13.00;;;-0.30;19.60;;;;;;5029194;28;20485;-58
2022/03/09 02:34:22;;;;;;;49.50;13.40;;;-0.30;19.50;;;;;;5028664;28;20866;-58
2022/03/09 02:36:49;;;;;;;47.30;11.40;;;-0.30;19.50;;;;;;5021698;28;20467;-59
2022/03/09 02:39:16;;;;;;;46.17;11.93;;;-0.30;19.60;;;;;;5041796;28;20473;-59
2022/03/09 02:41:44;;;;;;;47.40;13.20;;;-0.40;19.70;;;;;;5034299;28;21165;-59
2022/03/09 02:44:11;;;;;;;49.47;12.40;;;-0.30;19.80;;;;;;5034784;28;21004;-59
2022/03/09 02:46:37;;;;;;;49.33;12.70;;;-0.40;19.70;;;;;;5034382;28;20473;-59
2022/03/09 02:49:04;;;;;;;51.87;12.40;;;-0.40;19.60;;;;;;5035329;28;20462;-58
2022/03/09 02:51:31;;;;;;;49.47;11.50;;;-0.40;19.60;;;;;;5032003;28;20854;-60
2022/03/09 02:53:58;;;;;;;52.97;12.93;;;-0.40;19.80;;;;;;5028896;28;20513;-59
2022/03/09 02:56:25;;;;;;;52.03;13.53;;;-0.40;19.90;;;;;;5020659;28;20463;-59
2022/03/09 02:58:53;;;;;;;49.60;12.27;;;-0.50;19.90;;;;;;5036244;28;20459;-59
2022/03/09 03:01:20;;;;;;;49.90;14.03;;;-0.50;20.00;;;;;;5029954;28;20474;-59
2022/03/09 03:03:47;;;;;;;54.33;14.00;;;-0.60;20.00;;;;;;5023819;28;20480;-60
2022/03/09 03:06:14;;;;;;;49.30;13.17;;;-0.60;20.20;;;;;;5027325;28;20487;-59
2022/03/09 03:08:41;;;;;;;50.30;12.70;;;-0.60;20.40;;;;;;5022085;28;20850;-59
2022/03/09 03:11:09;;;;;;;48.93;12.47;;;-0.60;20.20;;;;;;5023367;28;20470;-59
2022/03/09 03:13:36;;;;;;;46.40;11.60;;;-0.60;20.40;;;;;;5028352;28;20465;-59
2022/03/09 03:16:05;;;;;;;44.80;11.07;;;-0.70;20.30;;;;;;5027353;28;20498;-59
2022/03/09 03:18:33;;;;;;;47.83;12.07;;;-0.70;20.40;;;;;;5018455;28;20467;-58
2022/03/09 03:21:00;;;;;;;46.37;10.80;;;-0.70;20.60;;;;;;5028360;28;20999;-58
2022/03/09 03:23:28;;;;;;;47.93;12.50;;;-0.70;20.40;;;;;;5036392;28;20483;-59
2022/03/09 03:25:56;;;;;;;48.33;12.73;;;-0.70;20.50;;;;;;5033094;28;20481;-59
2022/03/09 03:28:24;;;;;;;51.97;12.83;;;-0.70;20.70;;;;;;5026691;28;20467;-59
2022/03/09 03:30:51;;;;;;;48.47;13.20;;;-0.60;21.30;;;;;;5036406;28;20462;-59
2022/03/09 03:33:20;;;;;;;50.73;15.53;;;-0.60;21.40;;;;;;5028255;28;20459;-58
2022/03/09 03:35:48;;;;;;;51.87;12.53;;;-0.60;21.70;;;;;;5027099;28;20486;-59
2022/03/09 03:38:15;;;;;;;48.40;12.27;;;-0.60;21.60;;;;;;5017388;28;20471;-59
2022/03/09 03:40:43;;;;;;;50.07;14.90;;;-0.60;21.60;;;;;;5026963;28;20463;-60
2022/03/09 03:43:09;;;;;;;46.00;11.00;;;-0.60;21.70;;;;;;5029126;28;20482;-60
2022/03/09 03:45:36;;;;;;;49.20;12.67;;;-0.60;21.60;;;;;;5028925;28;20487;-59
2022/03/09 03:48:04;;;;;;;47.80;12.10;;;-0.50;21.80;;;;;;5027052;28;21180;-58
2022/03/09 03:50:32;;;;;;;46.73;11.57;;;-0.50;21.80;;;;;;5027167;28;21051;-60
2022/03/09 03:52:59;;;;;;;48.40;12.20;;;-0.50;21.50;;;;;;5039552;28;20461;-59
2022/03/09 03:55:26;;;;;;;46.80;10.90;;;-0.50;21.50;;;;;;5028568;28;20506;-59
2022/03/09 03:57:52;;;;;;;51.27;12.40;;;-0.50;21.20;;;;;;5027499;28;22072;-60
2022/03/09 04:00:19;;;;;;;49.00;11.53;;;-0.60;21.10;;;;;;5031758;28;20569;-60
2022/03/09 04:02:46;;;;;;;50.40;13.60;;;-0.60;21.10;;;;;;5027642;28;20459;-59
2022/03/09 04:05:13;;;;;;;46.27;11.80;;;-0.60;21.10;;;;;;5028407;28;20487;-60
2022/03/09 04:07:41;;;;;;;49.20;13.20;;;-0.60;21.10;;;;;;5027502;28;20463;-60
2022/03/09 04:10:08;;;;;;;50.40;13.53;;;-0.60;21.00;;;;;;5029508;28;20474;-59
2022/03/09 04:12:35;;;;;;;51.73;13.37;;;-0.60;20.80;;;;;;5029451;28;20454;-59
2022/03/09 04:15:02;;;;;;;47.53;13.00;;;-0.60;20.90;;;;;;5051618;23;20916;-59
2022/03/09 04:17:29;;;;;;;49.73;11.93;;;-0.60;21.10;;;;;;5048454;28;20501;-60
2022/03/09 04:19:56;;;;;;;49.20;12.93;;;-0.60;20.90;;;;;;5046186;28;20454;-60
2022/03/09 04:22:22;;;;;;;49.87;12.97;;;-0.60;21.10;;;;;;5047278;28;20462;-59
2022/03/09 04:24:51;;;;;;;47.90;11.83;;;-0.60;21.10;;;;;;5047813;28;20486;-60
2022/03/09 04:27:18;;;;;;;52.50;13.57;;;-0.60;21.20;;;;;;5044993;28;20848;-61
2022/03/09 04:29:44;;;;;;;48.53;12.30;;;-0.60;21.00;;;;;;5047031;28;20505;-59
2022/03/09 04:32:11;;;;;;;48.67;13.73;;;-0.70;21.10;;;;;;5044079;28;21017;-59
2022/03/09 04:34:38;;;;;;;48.57;14.60;;;-0.70;21.20;;;;;;5044561;28;20454;-61
2022/03/09 04:37:06;;;;;;;47.73;11.67;;;-0.70;21.10;;;;;;5043761;28;20462;-60
2022/03/09 04:39:32;;;;;;;47.53;12.60;;;-0.70;21.00;;;;;;5045133;28;20520;-60
2022/03/09 04:42:00;;;;;;;50.27;12.83;;;-0.70;21.40;;;;;;5042601;28;20473;-59
2022/03/09 04:44:27;;;;;;;50.57;13.27;;;-0.70;21.30;;;;;;5047834;28;20482;-59
2022/03/09 04:46:54;;;;;;;48.83;13.90;;;-0.80;21.20;;;;;;5047333;28;20459;-60
2022/03/09 04:49:21;;;;;;;49.73;12.47;;;-0.80;21.30;;;;;;5046963;28;20458;-61
2022/03/09 04:51:48;;;;;;;47.23;12.37;;;-0.90;21.30;;;;;;5046851;28;20493;-61
2022/03/09 04:54:14;;;;;;;51.40;12.47;;;-0.90;21.70;;;;;;5046942;28;20458;-60
2022/03/09 04:56:41;;;;;;;51.20;14.30;;;-0.90;21.80;;;;;;5043961;28;20477;-58
2022/03/09 04:59:09;;;;;;;46.97;13.37;;;-1.00;21.80;;;;;;5039799;28;20462;-60
2022/03/09 05:01:36;;;;;;;48.57;12.80;;;-1.10;21.80;;;;;;5042793;28;20489;-60
2022/03/09 05:04:03;;;;;;;48.37;11.90;;;-1.20;22.00;;;;;;5046896;28;21192;-59
2022/03/09 05:06:29;;;;;;;49.77;12.40;;;-1.20;22.50;;;;;;5045759;28;20481;-60
2022/03/09 05:08:57;;;;;;;49.97;13.13;;;-1.30;22.70;;;;;;5046041;28;20889;-58
2022/03/09 05:11:24;;;;;;;50.67;13.30;;;-1.30;22.60;;;;;;5045785;28;20466;-60
2022/03/09 05:13:51;;;;;;;49.93;12.60;;;-1.40;23.00;;;;;;5045314;28;20541;-60
2022/03/09 05:16:19;;;;;;;50.03;13.63;;;-1.40;22.90;;;;;;5046257;28;20875;-59
2022/03/09 05:18:45;;;;;;;46.80;11.50;;;-1.40;23.10;;;;;;5046493;28;20473;-59
2022/03/09 05:21:12;;;;;;;49.37;13.10;;;-1.40;23.30;;;;;;5045873;28;20955;-60
2022/03/09 05:23:39;;;;;;;49.87;12.73;;;-1.40;23.20;;;;;;5044282;28;20478;-61
2022/03/09 05:26:06;;;;;;;47.77;11.30;;;-1.50;23.40;;;;;;5046884;28;20489;-60
2022/03/09 05:28:32;;;;;;;57.37;13.37;;;-1.50;23.30;;;;;;5047439;28;20458;-59
2022/03/09 05:30:59;;;;;;;51.97;13.43;;;-1.50;23.40;;;;;;5044611;28;20486;-59
2022/03/09 05:33:27;;;;;;;52.93;15.83;;;-1.50;23.30;;;;;;5043203;28;20476;-60
2022/03/09 05:35:54;;;;;;;49.87;13.30;;;-1.50;23.50;;;;;;5045278;28;20529;-60
2022/03/09 05:38:21;;;;;;;50.33;14.40;;;-1.50;23.50;;;;;;5046954;28;21017;-60
2022/03/09 05:40:47;;;;;;;54.50;15.43;;;-1.50;23.20;;;;;;5045876;28;20466;-59
2022/03/09 05:43:14;;;;;;;52.70;14.37;;;-1.50;23.40;;;;;;5044186;28;20471;-59
2022/03/09 05:45:41;;;;;;;54.80;14.03;;;-1.40;23.50;;;;;;5041787;28;20474;-60
2022/03/09 05:48:08;;;;;;;52.93;12.73;;;-1.40;23.40;;;;;;5047202;28;20454;-59
2022/03/09 05:50:37;;;;;;;59.20;12.70;;;-1.50;23.50;;;;;;5046271;28;20458;-60
2022/03/09 05:53:03;;;;;;;51.70;13.00;;;-1.40;24.20;;;;;;5045711;28;20477;-59
2022/03/09 05:55:30;;;;;;;50.57;13.30;;;-1.40;23.90;;;;;;5045090;28;20825;-59
2022/03/09 05:57:57;;;;;;;50.50;12.87;;;-1.40;24.20;;;;;;5046635;28;20477;-60
2022/03/09 06:00:24;;;;;;;52.80;13.07;;;-1.30;24.20;;;;;;5046333;28;20475;-60
2022/03/09 06:02:51;;;;;;;57.60;12.70;;;-1.20;24.20;;;;;;5046939;28;20461;-59
2022/03/09 06:05:18;;;;;;;49.50;12.00;;;-1.10;24.30;;;;;;5045923;28;20520;-59
2022/03/09 06:07:46;;;;;;;52.60;13.90;;;-0.90;24.40;;;;;;5045404;28;20557;-60
2022/03/09 06:10:12;;;;;;;51.40;12.13;;;-0.80;24.60;;;;;;5047047;28;20457;-59
2022/03/09 06:12:39;;;;;;;48.70;12.67;;;-0.60;24.70;;;;;;5045359;28;20466;-61
2022/03/09 06:15:07;;;;;;;49.33;13.87;;;-0.40;24.50;;;;;;5044400;28;20485;-59
2022/03/09 06:17:44;;;;;;;47.43;12.10;;;-0.10;24.40;;;;;;5045581;28;20473;-58
2022/03/09 06:20:12;;;;;;;49.83;12.17;;;0.10;23.80;;;;;;5042587;28;20465;-59
2022/03/09 06:22:39;;;;;;;46.97;13.10;;;0.40;22.60;;;;;;5043296;28;20465;-61
2022/03/09 06:25:08;;;;;;;50.80;13.87;;;0.90;21.10;;;;;;5044832;28;20494;-59
2022/03/09 06:27:40;;;;;;;48.10;14.10;;;1.50;19.70;;;;;;5038502;28;20476;-60
2022/03/09 06:30:08;;;;;;;48.80;13.20;;;2.20;18.40;;;;;;5042856;28;20697;-60
2022/03/09 06:32:35;;;;;;;51.00;13.93;;;3.20;17.10;;;;;;5044675;28;20480;-61
2022/03/09 06:35:03;;;;;;;46.30;13.20;;;4.10;15.70;;;;;;5038887;28;20486;-61
2022/03/09 06:37:30;;;;;;;49.63;12.87;;;4.80;14.30;;;;;;5041619;28;20476;-61
2022/03/09 06:39:57;;;;;;;46.33;14.63;;;5.40;13.30;;;;;;5041784;28;20469;-60
2022/03/09 06:42:26;;;;;;;46.80;12.83;;;5.80;12.30;;;;;;5042191;28;20458;-60
2022/03/09 06:44:53;;;;;;;45.67;14.30;;;6.00;11.20;;;;;;5043230;28;20508;-59
2022/03/09 06:47:20;;;;;;;49.40;15.37;;;5.80;11.20;;;;;;5041681;28;20964;-61
2022/03/09 06:49:47;;;;;;;43.30;12.10;;;5.80;11.70;;;;;;5042777;28;21018;-59
2022/03/09 06:52:14;;;;;;;54.03;14.30;;;5.70;11.50;;;;;;5044439;28;20468;-59
2022/03/09 06:54:41;;;;;;;43.50;11.50;;;5.80;10.90;;;;;;5045068;28;20466;-60
2022/03/09 06:57:08;;;;;;;46.60;12.83;;;5.90;11.90;;;;;;5042197;28;20457;-58
2022/03/09 06:59:37;;;;;;;46.23;12.50;;;6.00;11.00;;;;;;5045349;28;20545;-59
2022/03/09 07:02:04;;;;;;;48.93;11.93;;;6.10;10.70;;;;;;5044179;28;20474;-59
2022/03/09 07:04:31;;;;;;;44.17;11.13;;;6.10;11.00;;;;;;5045303;28;20477;-59
2022/03/09 07:06:58;;;;;;;43.27;11.00;;;6.30;11.00;;;;;;5050655;28;20470;-59
2022/03/09 07:09:24;;;;;;;44.37;11.27;;;6.40;11.20;;;;;;5056313;28;20479;-61
2022/03/09 07:11:52;;;;;;;41.53;10.13;;;6.60;11.60;;;;;;5055560;28;20990;-59
2022/03/09 07:14:20;;;;;;;47.27;11.90;;;7.00;11.50;;;;;;5054755;28;20454;-60
2022/03/09 07:16:48;;;;;;;43.70;12.00;;;7.60;9.10;;;;;;5053477;28;20520;-59
2022/03/09 07:19:15;;;;;;;45.23;12.87;;;8.40;7.60;;;;;;5047193;28;20465;-61
2022/03/09 07:21:42;;;;;;;44.07;11.97;;;8.90;6.70;;;;;;5048334;28;20553;-59
2022/03/09 07:24:09;;;;;;;47.10;13.37;;;9.20;5.90;;;;;;5044415;28;20513;-61
2022/03/09 07:26:40;;;;;;;48.17;12.90;;;9.40;5.90;;;;;;5048774;28;20486;-59
2022/03/09 07:29:07;;;;;;;48.70;13.73;;;9.60;5.50;;;;;;5047549;28;20515;-62
2022/03/09 07:31:34;;;;;;;44.57;12.23;;;9.90;5.30;;;;;;5048365;28;21018;-60
2022/03/09 07:34:02;;;;;;;44.03;13.00;;;10.60;4.20;;;;;;5047201;28;20545;-57
2022/03/09 07:36:28;;;;;;;43.03;12.23;;;11.50;3.20;;;;;;5048568;28;20481;-59
2022/03/09 07:38:55;;;;;;;41.70;12.53;;;12.60;2.00;;;;;;5047821;28;20489;-62
2022/03/09 07:41:22;;;;;;;43.13;12.63;;;13.80;1.00;;;;;;5049232;28;20462;-61
2022/03/09 07:43:49;;;;;;;42.50;13.50;;;15.00;1.00;;;;;;5048650;28;20459;-61
2022/03/09 07:46:16;;;;;;;40.27;13.03;;;16.40;1.00;;;;;;5047785;28;20489;-61
2022/03/09 07:48:43;;;;;;;40.43;13.10;;;17.70;1.00;;;;;;5046433;28;20471;-61
2022/03/09 07:51:11;;;;;;;43.60;13.17;;;18.80;1.00;;;;;;5048466;28;20458;-61
2022/03/09 07:53:42;;;;;;;40.30;12.20;;;20.00;1.00;;;;;;5047138;28;20462;-60
2022/03/09 07:56:10;;;;;;;40.20;12.63;;;21.00;1.00;;;;;;5045977;28;20658;-60
2022/03/09 07:58:37;;;;;;;41.87;12.83;;;21.90;1.00;;;;;;5045901;28;20458;-61
2022/03/09 08:01:04;;;;;;;42.20;13.90;;;22.90;1.00;;;;;;5047777;28;20585;-59
2022/03/09 08:03:30;;;;;;;39.63;13.90;;;23.80;1.00;;;;;;5045230;28;20462;-60
2022/03/09 08:05:57;;;;;;;36.80;12.23;;;24.60;1.00;;;;;;5045597;28;20905;-60
2022/03/09 08:08:25;;;;;;;46.00;14.80;;;25.30;1.00;;;;;;5047310;28;20465;-60
2022/03/09 08:10:52;;;;;;;41.80;14.80;;;26.00;1.00;;;;;;5044756;28;20458;-61
2022/03/09 08:13:19;;;;;;;40.43;13.50;;;26.70;1.00;;;;;;5044873;28;20858;-59
2022/03/09 08:15:46;;;;;;;37.97;14.30;;;27.40;1.00;;;;;;5046958;28;20478;-62
2022/03/09 08:18:12;;;;;;;35.97;12.93;;;28.00;1.00;;;;;;5047787;28;20465;-60
2022/03/09 08:20:39;;;;;;;36.07;13.50;;;28.50;1.00;;;;;;5045165;28;20462;-61
2022/03/09 08:23:08;;;;;;;35.40;12.80;;;29.20;1.00;;;;;;5041432;28;20477;-61
2022/03/09 08:25:36;;;;;;;36.50;13.40;;;29.60;1.00;;;;;;5046331;28;20482;-61
2022/03/09 08:28:03;;;;;;;37.80;14.10;;;30.20;1.00;;;;;;5048393;28;20462;-60
2022/03/09 08:30:30;;;;;;;34.67;12.90;;;30.70;1.00;;;;;;5048026;28;20969;-61
2022/03/09 08:32:57;;;;;;;37.03;13.00;;;31.20;1.00;;;;;;5046437;28;20461;-59
2022/03/09 08:35:23;;;;;;;36.17;13.70;;;31.50;1.00;;;;;;5047583;28;20482;-58
2022/03/09 08:37:50;;;;;;;36.93;15.20;;;31.90;1.00;;;;;;5045300;28;20465;-62
2022/03/09 08:40:17;;;;;;;38.07;14.83;;;32.20;1.00;;;;;;5046362;28;21014;-61
2022/03/09 08:42:46;;;;;;;36.47;14.53;;;32.30;1.00;;;;;;5043036;28;20494;-61
2022/03/09 08:45:13;;;;;;;36.90;14.43;;;32.50;1.00;;;;;;5045366;28;20521;-60
2022/03/09 08:47:40;;;;;;;39.00;15.23;;;32.90;1.00;;;;;;5046373;28;20462;-60
2022/03/09 08:50:07;;;;;;;39.40;14.20;;;32.80;1.00;;;;;;5045901;28;21016;-61
2022/03/09 08:52:34;;;;;;;36.57;14.40;;;32.20;1.00;;;;;;5041339;28;20517;-57
2022/03/09 08:55:01;;;;;;;35.43;14.37;;;32.30;1.00;;;;;;5045232;28;20582;-57
2022/03/09 08:57:28;;;;;;;36.70;15.03;;;32.50;1.00;;;;;;5044262;28;20498;-59
2022/03/09 08:59:57;;;;;;;41.40;14.23;;;32.70;1.00;;;;;;5043230;28;20465;-59
2022/03/09 09:02:24;;;;;;;36.00;14.60;;;33.10;1.00;;;;;;5044558;28;21164;-60
2022/03/09 09:04:50;;;;;;;35.07;13.93;;;33.50;1.00;;;;;;5041102;28;20493;-61
2022/03/09 09:07:17;;;;;;;35.70;14.67;;;33.80;1.00;;;;;;5040756;28;20474;-59
2022/03/09 09:09:44;;;;;;;35.10;13.37;;;34.00;1.00;;;;;;5043954;28;20469;-61
2022/03/09 09:12:11;;;;;;;33.83;12.50;;;34.30;1.00;;;;;;5047014;28;20461;-60
2022/03/09 09:14:38;;;;;;;34.77;13.20;;;34.40;1.00;;;;;;5041923;28;20458;-62
2022/03/09 09:17:07;;;;;;;35.33;11.77;;;34.70;1.00;;;;;;5045140;28;21039;-58
2022/03/09 09:19:34;;;;;;;33.10;12.23;;;35.10;1.00;;;;;;5043932;28;20489;-58
2022/03/09 09:22:01;;;;;;;32.90;13.03;;;35.10;1.00;;;;;;5045243;28;20450;-58
2022/03/09 09:24:28;;;;;;;35.70;13.57;;;35.30;1.00;;;;;;5045775;28;21151;-60
2022/03/09 09:26:54;;;;;;;33.33;12.60;;;35.50;1.00;;;;;;5044419;28;20473;-58
2022/03/09 09:29:21;;;;;;;33.03;13.43;;;35.60;1.00;;;;;;5045748;28;20458;-60
2022/03/09 09:31:48;;;;;;;34.60;12.30;;;36.00;1.00;;;;;;5045110;28;20481;-59
2022/03/09 09:34:17;;;;;;;35.63;13.00;;;36.50;1.00;;;;;;5046712;28;20458;-60
2022/03/09 09:36:46;;;;;;;35.07;13.00;;;36.60;1.00;;;;;;5043891;28;20479;-61
2022/03/09 09:39:14;;;;;;;34.57;13.57;;;36.90;1.00;;;;;;5044946;28;20466;-59
2022/03/09 09:41:43;;;;;;;34.37;14.47;;;37.20;1.00;;;;;;5045661;28;20924;-60
2022/03/09 09:44:12;;;;;;;35.23;14.30;;;37.40;1.00;;;;;;5044185;28;20470;-60
2022/03/09 09:46:40;;;;;;;33.70;14.73;;;37.70;1.00;;;;;;5045968;28;20489;-61
2022/03/09 09:49:07;;;;;;;32.60;14.17;;;37.80;1.00;;;;;;5045192;28;20515;-61
2022/03/09 09:51:37;;;;;;;34.67;15.20;;;38.00;1.00;;;;;;5045093;28;20466;-60
2022/03/09 09:54:05;;;;;;;36.23;17.73;;;38.10;1.00;;;;;;5043185;28;20469;-60
2022/03/09 09:56:36;;;;;;;36.67;17.63;;;38.30;1.00;;;;;;5044613;28;20478;-59
2022/03/09 09:59:04;;;;;;;36.03;17.70;;;38.40;1.00;;;;;;5042576;28;20641;-60
2022/03/09 10:01:30;;;;;;;36.47;18.00;;;38.60;1.00;;;;;;5040401;28;20489;-58
2022/03/09 10:03:57;;;;;;;36.07;18.03;;;38.80;1.00;;;;;;5045133;28;20693;-57
2022/03/09 10:06:24;;;;;;;36.83;18.27;;;39.00;1.00;;;;;;5045920;28;20505;-59
2022/03/09 10:09:05;;;;;;;35.87;17.90;;;39.20;1.00;;;;;;5046642;28;20473;-59
2022/03/09 10:11:49;;;;;;;37.20;18.60;;;39.20;1.00;;;;;;5042758;28;20548;-60
2022/03/09 10:14:16;;;;;;;37.93;19.07;;;39.00;1.00;;;;;;5042002;28;20458;-58
2022/03/09 10:17:06;;;;;;;34.60;17.50;;;39.20;1.00;;;;;;5044219;28;20485;-58
2022/03/09 10:19:34;;;;;;;38.93;20.20;;;39.50;1.00;;;;;;5043148;28;20454;-60
2022/03/09 10:22:23;;;;;;;39.70;20.43;;;39.50;1.00;;;;;;5043286;28;20462;-59
2022/03/09 10:24:53;;;;;;;39.03;20.47;;;39.40;1.00;;;;;;5039571;28;20482;-59
2022/03/09 10:27:38;;;;;;;38.97;21.13;;;39.10;1.00;;;;;;5044857;28;20461;-61
2022/03/09 10:30:09;;;;;;;37.73;19.90;;;38.80;1.00;;;;;;5044137;28;20539;-61
2022/03/09 10:32:47;;;;;;;38.93;20.77;;;38.30;1.00;;;;;;5043036;28;20472;-60
2022/03/09 10:35:17;;;;;;;39.70;21.23;;;38.20;1.00;;;;;;5043749;28;20485;-59
2022/03/09 10:37:47;;;;;;;38.40;20.83;;;38.00;1.00;;;;;;5045044;28;20474;-60
2022/03/09 10:40:17;;;;;;;40.50;22.70;;;38.00;1.00;;;;;;5046834;28;20466;-60
2022/03/09 10:42:44;;;;;;;40.83;22.23;;;38.00;1.00;;;;;;5046677;28;20458;-60
2022/03/09 10:45:11;;;;;;;45.13;22.77;;;38.00;1.00;;;;;;5047071;28;21077;-60
2022/03/09 10:47:41;;;;;;;41.13;23.57;;;38.00;1.00;;;;;;5048463;28;21077;-61
2022/03/09 10:50:13;;;;;;;40.20;22.37;;;38.00;1.00;;;;;;5048854;28;20955;-59
2022/03/09 10:52:51;;;;;;;40.97;22.40;;;38.10;1.00;;;;;;5047294;28;20470;-60
2022/03/09 10:55:30;;;;;;;44.23;22.17;;;38.30;1.00;;;;;;5044560;28;20503;-60
2022/03/09 10:58:12;;;;;;;39.83;22.00;;;38.10;1.00;;;;;;5047867;28;20511;-60
2022/03/09 11:00:41;;;;;;;40.97;22.57;;;37.90;1.00;;;;;;5046198;28;20470;-60
2022/03/09 11:03:11;;;;;;;43.00;24.07;;;37.80;1.00;;;;;;5039717;28;20477;-61
2022/03/09 11:05:47;;;;;;;42.13;24.63;;;37.70;1.00;;;;;;5047596;28;20524;-61
2022/03/09 11:08:16;;;;;;;39.37;20.20;;;37.60;1.00;;;;;;5047491;28;20481;-61
2022/03/09 11:10:46;;;;;;;40.30;21.17;;;37.30;1.00;;;;;;5048265;28;20515;-62
2022/03/09 11:13:14;;;;;;;39.00;20.40;;;37.00;1.00;;;;;;5046924;28;20461;-60
2022/03/09 11:15:42;;;;;;;43.20;21.27;;;36.90;1.00;;;;;;5048383;28;20481;-59
2022/03/09 11:18:12;;;;;;;40.87;20.97;;;36.60;1.00;;;;;;5046076;28;20573;-61
2022/03/09 11:20:39;;;;;;;42.43;21.67;;;36.40;1.00;;;;;;5046239;28;20458;-60
2022/03/09 11:23:06;;;;;;;44.17;23.10;;;36.00;1.00;;;;;;5047051;28;20462;-59
2022/03/09 11:25:34;;;;;;;43.93;22.00;;;35.70;1.00;;;;;;5046167;28;20497;-59
2022/03/09 11:28:03;;;;;;;40.97;20.97;;;35.70;1.00;;;;;;5047101;28;20470;-61
2022/03/09 11:30:33;;;;;;;40.17;21.27;;;35.70;1.00;;;;;;5047602;28;20553;-59
2022/03/09 11:33:01;;;;;;;42.40;21.57;;;35.50;1.00;;;;;;5047956;28;21047;-59
2022/03/09 11:35:32;;;;;;;39.33;20.43;;;35.30;1.00;;;;;;5044404;28;20486;-60
2022/03/09 11:37:59;;;;;;;40.60;20.87;;;34.70;1.00;;;;;;5047508;28;20464;-60
2022/03/09 11:40:26;;;;;;;43.83;22.60;;;34.10;1.00;;;;;;5045417;28;20466;-60
2022/03/09 11:42:53;;;;;;;45.60;23.07;;;33.30;1.00;;;;;;5047770;28;20462;-60
2022/03/09 11:45:49;;;;;;;45.07;23.03;;;32.60;1.00;;;;;;5045231;28;20482;-60
2022/03/09 11:48:18;;;;;;;43.63;23.10;;;31.50;1.00;;;;;;5048764;28;20462;-59
2022/03/09 11:51:12;;;;;;;44.07;23.53;;;30.50;1.00;;;;;;5046460;28;20980;-61
2022/03/09 11:53:42;;;;;;;45.67;24.33;;;29.80;1.00;;;;;;5046223;28;20470;-60
2022/03/09 11:56:26;;;;;;;48.70;23.97;;;29.50;1.00;;;;;;5039107;28;20486;-58
2022/03/09 11:59:19;;;;;;;48.17;25.30;;;29.40;1.00;;;;;;5044325;28;20461;-59
2022/03/09 12:02:17;;;;;;;49.80;23.90;;;29.30;1.00;;;;;;5044069;28;20560;-60
2022/03/09 12:04:54;;;;;;;49.10;24.83;;;29.00;1.00;;;;;;5045669;28;20471;-59
2022/03/09 12:07:47;;;;;;;49.13;23.47;;;28.60;1.00;;;;;;5046313;28;20484;-59
2022/03/09 12:10:15;;;;;;;49.73;26.00;;;28.10;1.00;;;;;;5043252;28;20461;-60
2022/03/09 12:13:09;;;;;;;51.60;24.93;;;27.50;1.00;;;;;;5046458;28;20466;-60
2022/03/09 12:16:00;;;;;;;49.30;25.87;;;26.70;1.00;;;;;;5043075;28;20494;-60
2022/03/09 12:18:36;;;;;;;50.93;26.57;;;26.00;1.00;;;;;;5045240;28;20477;-59
2022/03/09 12:21:02;;;;;;;51.40;26.00;;;25.60;1.00;;;;;;5046814;28;21021;-59
2022/03/09 12:23:29;;;;;;;54.03;25.77;;;25.40;1.00;;;;;;5045058;28;20458;-60
2022/03/09 12:25:58;;;;;;;53.73;28.27;;;25.10;1.00;;;;;;5045253;28;20956;-60
2022/03/09 12:28:44;;;;;;;53.13;27.17;;;25.00;1.00;;;;;;5046091;28;20478;-59
2022/03/09 12:31:20;;;;;;;52.90;25.43;;;24.60;1.00;;;;;;5042974;28;20466;-60
2022/03/09 12:33:54;;;;;;;52.80;25.53;;;23.90;1.00;;;;;;5047041;28;20863;-61
2022/03/09 12:36:22;;;;;;;55.73;27.90;;;23.00;1.00;;;;;;5044027;28;21080;-60
2022/03/09 12:38:51;;;;;;;59.00;27.50;;;22.30;1.00;;;;;;5047791;28;20510;-60
2022/03/09 12:41:26;;;;;;;55.17;26.90;;;21.40;1.00;;;;;;5045932;28;20485;-60
2022/03/09 12:43:56;;;;;;;53.00;25.73;;;20.70;1.00;;;;;;5047629;28;20549;-59